createdAt,value
2018-08-03T00:01:02.554Z,2.6
2018-08-03T00:06:04.967Z,2.5
2018-08-03T00:11:07.117Z,4.1
2018-08-03T00:16:09.318Z,2.6
2018-08-03T00:21:11.712Z,3.6
2018-08-03T00:26:13.924Z,2.1
2018-08-03T00:31:16.371Z,2.7
2018-08-03T00:36:18.603Z,1.9
2018-08-03T00:41:20.870Z,2.1
2018-08-03T00:46:23.251Z,4.8
2018-08-03T00:51:26.093Z,2.2
2018-08-03T00:56:27.780Z,4.5
2018-08-03T01:01:30.004Z,3.1
2018-08-03T01:06:32.342Z,3.4
2018-08-03T01:11:34.632Z,1.6
2018-08-03T01:16:38.305Z,3.9
2018-08-03T01:21:39.313Z,3.4
2018-08-03T01:26:41.616Z,3.5
2018-08-03T01:31:43.806Z,3.2
2018-08-03T01:36:46.168Z,3.3
2018-08-03T01:41:48.531Z,3.2
2018-08-03T01:51:52.988Z,4.8
2018-08-03T01:56:55.346Z,4.2
2018-08-03T02:01:57.637Z,5.1
2018-08-03T02:06:59.882Z,3.1
2018-08-03T02:12:02.384Z,5.2
2018-08-03T02:17:04.644Z,3.8
2018-08-03T02:22:07.069Z,4.7
2018-08-03T02:27:09.165Z,4.7
2018-08-03T02:32:11.385Z,7.1
2018-08-03T02:37:13.741Z,5.5
2018-08-03T02:42:16.002Z,4.7
2018-08-03T02:47:18.272Z,5.3
2018-08-03T02:52:20.589Z,5.8
2018-08-03T02:57:22.898Z,5.3
2018-08-03T03:02:25.136Z,7.3
2018-08-03T03:07:27.612Z,7.6
2018-08-03T03:12:29.689Z,5.9
2018-08-03T03:17:32.019Z,6.9
2018-08-03T03:22:34.401Z,4.9
2018-08-03T03:27:36.615Z,6.2
2018-08-03T03:32:38.989Z,4.8
2018-08-03T03:37:41.235Z,5.7
2018-08-03T03:42:43.904Z,4.9
2018-08-03T03:47:45.893Z,8.5
2018-08-03T03:52:48.078Z,5.7
2018-08-03T03:57:50.404Z,6.4
2018-08-03T04:02:52.606Z,6.2
2018-08-03T04:07:54.959Z,6.5
2018-08-03T04:12:57.345Z,7.6
2018-08-03T04:17:59.523Z,7.2
2018-08-03T04:23:01.880Z,5.7
2018-08-03T04:28:04.105Z,4.8
2018-08-03T04:33:06.388Z,5.2
2018-08-03T04:38:08.764Z,6.9
2018-08-03T04:43:11.080Z,5
2018-08-03T04:48:13.349Z,8.5
2018-08-03T04:53:15.561Z,5.2
2018-08-03T04:58:17.971Z,6.7
2018-08-03T05:03:20.241Z,8.1
2018-08-03T05:08:22.479Z,7.5
2018-08-03T05:13:24.754Z,8.1
2018-08-03T05:18:27.070Z,4.8
2018-08-03T05:23:30.552Z,9.1
2018-08-03T05:28:31.639Z,7
2018-08-03T05:33:33.968Z,7.1
2018-08-03T05:38:36.362Z,10.1
2018-08-03T05:43:38.544Z,4.7
2018-08-03T05:48:40.927Z,9
2018-08-03T05:53:43.188Z,10.2
2018-08-03T05:58:45.531Z,9.4
2018-08-03T06:03:47.673Z,8.3
2018-08-03T06:08:49.977Z,11
2018-08-03T06:13:52.333Z,7.8
2018-08-03T06:18:54.695Z,8.7
2018-08-03T06:28:59.211Z,3.9
2018-08-03T06:34:01.446Z,8
2018-08-03T06:39:03.956Z,6.3
2018-08-03T06:44:06.069Z,7.9
2018-08-03T06:49:08.310Z,9.6
2018-08-03T06:54:10.660Z,6
2018-08-03T06:59:12.925Z,5.8
2018-08-03T07:04:15.230Z,7.5
2018-08-03T07:09:17.531Z,8
2018-08-03T07:14:19.883Z,4.8
2018-08-03T07:19:22.258Z,8.1
2018-08-03T07:24:24.451Z,5.5
2018-08-03T07:29:26.717Z,5.8
2018-08-03T07:34:29.059Z,5.4
2018-08-03T07:39:31.272Z,3.3
2018-08-03T07:44:33.576Z,3.7
2018-08-03T07:49:35.988Z,4.6
2018-08-03T07:54:38.326Z,6.3
2018-08-03T07:59:40.559Z,5.2
2018-08-03T08:04:42.760Z,5.5
2018-08-03T08:09:45.203Z,5
2018-08-03T08:14:47.407Z,2.8
2018-08-03T08:19:49.661Z,3.2
2018-08-03T08:24:51.984Z,3.7
2018-08-03T08:29:54.193Z,5.3
2018-08-03T08:34:56.596Z,4.2
2018-08-03T08:39:58.858Z,4.1
2018-08-03T08:45:01.141Z,3.2
2018-08-03T08:50:03.472Z,2.7
2018-08-03T08:55:05.774Z,2
2018-08-03T09:00:07.983Z,5.1
2018-08-03T09:05:10.255Z,2.7
2018-08-03T09:10:12.575Z,2.4
2018-08-03T09:15:14.917Z,3.9
2018-08-03T09:20:17.276Z,5
2018-08-03T09:25:19.480Z,4.2
2018-08-03T09:30:23.052Z,3.5
2018-08-03T09:35:24.103Z,3.2
2018-08-03T09:40:26.478Z,2
2018-08-03T09:45:28.680Z,2.7
2018-08-03T09:50:30.879Z,3.9
2018-08-03T09:55:33.339Z,3.2
2018-08-03T10:00:35.665Z,3.4
2018-08-03T10:10:40.096Z,1.8
2018-08-03T10:15:42.604Z,2.5
2018-08-03T10:20:44.729Z,4
2018-08-03T10:25:47.022Z,3
2018-08-03T10:30:49.262Z,3.5
2018-08-03T10:35:51.621Z,3.2
2018-08-03T10:40:53.981Z,3.2
2018-08-03T10:45:56.259Z,4.4
2018-08-03T10:50:58.462Z,2.2
2018-08-03T10:56:00.830Z,3.9
2018-08-03T11:01:03.301Z,3.4
2018-08-03T11:06:05.411Z,2.7
2018-08-03T11:11:07.628Z,2.9
2018-08-03T11:16:09.993Z,3
2018-08-03T11:21:16.437Z,3.6
2018-08-03T11:26:14.714Z,3.4
2018-08-03T11:31:16.882Z,3
2018-08-03T11:36:19.151Z,2.6
2018-08-03T11:41:21.450Z,3.8
2018-08-03T11:46:23.695Z,2.4
2018-08-03T11:51:26.101Z,3.3
2018-08-03T11:56:28.308Z,4
2018-08-03T12:01:30.601Z,3.4
2018-08-03T12:06:33.625Z,3.2
2018-08-03T12:11:35.209Z,2.9
2018-08-03T12:16:38.499Z,2.9
2018-08-03T12:21:39.900Z,3.2
2018-08-03T12:26:42.121Z,2.2
2018-08-03T12:31:44.328Z,2.7
2018-08-03T12:36:46.662Z,4.5
2018-08-03T12:41:49.053Z,2.4
2018-08-03T12:46:51.460Z,2.9
2018-08-03T12:51:53.654Z,2.8
2018-08-03T12:56:55.891Z,2.3
2018-08-03T13:01:58.157Z,3
2018-08-03T13:07:00.370Z,2.5
2018-08-03T13:12:03.871Z,1.8
2018-08-03T13:17:04.968Z,3.5
2018-08-03T13:22:07.327Z,4.6
2018-08-03T13:27:09.589Z,2.8
2018-08-03T13:32:11.941Z,3.2
2018-08-03T13:37:14.265Z,2.8
2018-08-03T13:42:16.512Z,4.6
2018-08-03T13:47:18.810Z,4.5
2018-08-03T13:52:21.115Z,4.1
2018-08-03T13:57:23.414Z,3.3
2018-08-03T14:02:25.783Z,7.1
2018-08-03T14:07:27.993Z,5.1
2018-08-03T14:12:30.380Z,4
2018-08-03T14:17:32.577Z,4.8
2018-08-03T14:22:34.878Z,4.1
2018-08-03T14:27:37.197Z,3.9
2018-08-03T14:32:39.447Z,4.1
2018-08-03T14:37:41.745Z,3.8
2018-08-03T14:42:44.091Z,3.8
2018-08-03T14:47:46.521Z,5
2018-08-03T14:52:48.636Z,4.9
2018-08-03T14:57:50.895Z,4.6
2018-08-03T15:02:53.222Z,3
2018-08-03T15:07:55.573Z,3.1
2018-08-03T15:12:57.775Z,5.4
2018-08-03T15:18:00.122Z,3.5
2018-08-03T15:23:02.455Z,2.2
2018-08-03T15:28:04.786Z,3.2
2018-08-03T15:33:07.087Z,3.6
2018-08-03T15:38:09.282Z,3.7
2018-08-03T15:43:11.588Z,3.3
2018-08-03T15:48:13.848Z,3.5
2018-08-03T15:53:16.154Z,1.6
2018-08-03T15:58:18.575Z,3
2018-08-03T16:03:20.761Z,1.9
2018-08-03T16:08:22.991Z,3.2
2018-08-03T16:13:25.390Z,2.4
2018-08-03T16:18:27.683Z,2
2018-08-03T16:23:29.863Z,2.9
2018-08-03T16:28:33.329Z,1.9
2018-08-03T16:33:34.568Z,3.9
2018-08-03T16:38:36.895Z,2.5
2018-08-03T16:43:39.287Z,3.8
2018-08-03T16:48:41.545Z,5.2
2018-08-03T16:53:43.776Z,4.5
2018-08-03T16:58:46.089Z,2.3
2018-08-03T17:03:48.232Z,4.6
2018-08-03T17:08:50.663Z,4.1
2018-08-03T17:13:52.946Z,3
2018-08-03T17:18:55.235Z,3.3
2018-08-03T17:23:57.507Z,4.1
2018-08-03T17:28:59.833Z,3.3
2018-08-03T17:34:02.054Z,3.5
2018-08-03T17:39:04.331Z,3.7
2018-08-03T17:44:06.679Z,4.5
2018-08-03T17:49:09.003Z,3.2
2018-08-03T17:54:11.384Z,3
2018-08-03T17:59:13.536Z,3
2018-08-03T18:04:15.844Z,3.1
2018-08-03T18:09:18.165Z,2.6
2018-08-03T18:14:20.543Z,3.4
2018-08-03T18:19:22.771Z,1.4
2018-08-03T18:24:25.121Z,2.8
2018-08-03T18:29:27.344Z,2.6
2018-08-03T18:34:29.614Z,3.2
2018-08-03T18:39:31.868Z,2.8
2018-08-03T18:44:34.298Z,3.2
2018-08-03T18:49:36.569Z,3.1
2018-08-03T18:54:38.721Z,2.8
2018-08-03T18:59:41.072Z,3.1
2018-08-03T19:09:45.699Z,3
2018-08-03T19:14:48.033Z,1.6
2018-08-03T19:19:50.423Z,1.8
2018-08-03T19:24:52.553Z,2.1
2018-08-03T19:29:54.878Z,2.8
2018-08-03T19:34:57.231Z,1.7
2018-08-03T19:40:01.393Z,1.7
2018-08-03T19:45:03.004Z,1.3
2018-08-03T19:50:04.253Z,1
2018-08-03T19:55:06.390Z,1.6
2018-08-03T20:00:10.385Z,2
2018-08-03T20:05:11.058Z,1.4
2018-08-03T20:10:13.254Z,1.8
2018-08-03T20:15:15.530Z,2.3
2018-08-03T20:20:17.825Z,1.7
2018-08-03T20:25:20.095Z,1.2
2018-08-03T20:30:22.349Z,2.1
2018-08-03T20:35:24.662Z,1.7
2018-08-03T20:40:26.981Z,2.9
2018-08-03T20:45:29.332Z,2.6
2018-08-03T20:50:31.610Z,4.1
2018-08-03T20:55:33.897Z,2.4
2018-08-03T21:00:36.379Z,1.8
2018-08-03T21:05:38.449Z,2.2
2018-08-03T21:10:40.801Z,2.5
2018-08-03T21:15:43.041Z,1.4
2018-08-03T21:20:45.336Z,3.1
2018-08-03T21:25:47.585Z,3.3
2018-08-03T21:30:49.956Z,3.2
2018-08-03T21:35:52.296Z,2.6
2018-08-03T21:40:54.534Z,3.8
2018-08-03T21:45:56.742Z,2
2018-08-03T21:50:59.079Z,3.6
2018-08-03T21:56:01.337Z,3
2018-08-03T22:01:03.691Z,3.7
2018-08-03T22:06:05.972Z,3.1
2018-08-03T22:11:08.313Z,2.3
2018-08-03T22:16:10.572Z,2.9
2018-08-03T22:21:12.863Z,3
2018-08-03T22:26:15.158Z,5.4
2018-08-03T22:31:17.459Z,3
2018-08-03T22:36:19.778Z,2.6
2018-08-03T22:41:22.040Z,2.9
2018-08-03T22:46:24.282Z,2.1
2018-08-03T22:51:28.296Z,3
2018-08-03T22:56:28.887Z,2.9
2018-08-03T23:01:31.386Z,4.4
2018-08-03T23:06:33.620Z,4.4
2018-08-03T23:11:35.870Z,2.5
2018-08-03T23:16:38.106Z,3.5
2018-08-03T23:21:40.475Z,2.9
2018-08-03T23:26:42.738Z,3
2018-08-03T23:31:44.987Z,5.2
2018-08-03T23:36:47.179Z,2.6
2018-08-03T23:41:49.589Z,2.5
2018-08-03T23:46:51.833Z,3
2018-08-03T23:51:54.152Z,2.7
2018-08-03T23:56:56.685Z,2.1
